Аэропорт: Ивано-Франковск. Ивано-Франковск

ICAO: UKLI

METAR:
Информация по данной станции не доступна
METAR:
2021-01-19 17:02:00
TAF UKLI 191702Z 1918/2003 VRB01MPS 2100 -SHSN BKN004 BKN015CB TEMPO 1918/1921 0700 +SHSN BKN003 BKN010CB